Map

Track Data

SID SEASON NUMBER BASIN SUBBASIN NAME ISO_TIME NATURE LAT LON WMO_WIND WMO_PRES WMO_AGENCY TRACK_TYPE DIST2LAND LANDFALL IFLAG USA_AGENCY USA_ATCF_ID USA_LAT USA_LON USA_RECORD USA_STATUS USA_WIND USA_PRES USA_SSHS USA_R34_NE USA_R34_SE USA_R34_SW USA_R34_NW USA_R50_NE USA_R50_SE USA_R50_SW USA_R50_NW USA_R64_NE USA_R64_SE USA_R64_SW USA_R64_NW USA_POCI USA_ROCI USA_RMW USA_EYE TOKYO_LAT TOKYO_LON TOKYO_GRADE TOKYO_WIND TOKYO_PRES TOKYO_R50_DIR TOKYO_R50_LONG TOKYO_R50_SHORT TOKYO_R30_DIR TOKYO_R30_LONG TOKYO_R30_SHORT TOKYO_LAND CMA_LAT CMA_LON CMA_CAT CMA_WIND CMA_PRES HKO_LAT HKO_LON HKO_CAT HKO_WIND HKO_PRES NEWDELHI_LAT NEWDELHI_LON NEWDELHI_GRADE NEWDELHI_WIND NEWDELHI_PRES NEWDELHI_CI NEWDELHI_DP NEWDELHI_POCI REUNION_LAT REUNION_LON REUNION_TYPE REUNION_WIND REUNION_PRES REUNION_TNUM REUNION_CI REUNION_RMW REUNION_R34_NE REUNION_R34_SE REUNION_R34_SW REUNION_R34_NW REUNION_R50_NE REUNION_R50_SE REUNION_R50_SW REUNION_R50_NW REUNION_R64_NE REUNION_R64_SE REUNION_R64_SW REUNION_R64_NW BOM_LAT BOM_LON BOM_TYPE BOM_WIND BOM_PRES BOM_TNUM BOM_CI BOM_RMW BOM_R34_NE BOM_R34_SE BOM_R34_SW BOM_R34_NW BOM_R50_NE BOM_R50_SE BOM_R50_SW BOM_R50_NW BOM_R64_NE BOM_R64_SE BOM_R64_SW BOM_R64_NW BOM_ROCI BOM_POCI BOM_EYE BOM_POS_METHOD BOM_PRES_METHOD NADI_LAT NADI_LON NADI_CAT NADI_WIND NADI_PRES WELLINGTON_LAT WELLINGTON_LON WELLINGTON_WIND WELLINGTON_PRES DS824_LAT DS824_LON DS824_STAGE DS824_WIND DS824_PRES TD9636_LAT TD9636_LON TD9636_STAGE TD9636_WIND TD9636_PRES TD9635_LAT TD9635_LON TD9635_WIND TD9635_PRES TD9635_ROCI NEUMANN_LAT NEUMANN_LON NEUMANN_CLASS NEUMANN_WIND NEUMANN_PRES MLC_LAT MLC_LON MLC_CLASS MLC_WIND MLC_PRES USA_GUST BOM_GUST BOM_GUST_PER REUNION_GUST REUNION_GUST_PER USA_SEAHGT USA_SEARAD_NE USA_SEARAD_SE USA_SEARAD_SW USA_SEARAD_NW STORM_SPEED STORM_DIR
1948255N17137 1948 62 WP MM JACKIE 1948-09-11 00:00:00 TS 17.2000 136.700 main 1328 1303 O________OOO__ jtwc_wp WP151948 17.2000 136.700 45 0 17.2000 136.700 TC 45 17.2000 136.700 2 45 17.2000 136.700 45 1002 60 8 294
1948255N17137 1948 62 WP MM JACKIE 1948-09-11 03:00:00 TS 17.3526 136.339 main 1298 1279 P________PPP__ WP151948 17.3628 136.300 45 0 17.3628 136.300 TC 45 17.3221 136.457 2 46 17.3628 136.300 45 1001 60 7 295
1948255N17137 1948 62 WP MM JACKIE 1948-09-11 06:00:00 TS 17.4863 136.053 main 1284 1265 O________OPO__ jtwc_wp WP151948 17.5000 136.000 45 0 17.5000 136.000 TC 45 17.4453 136.210 2 47 17.5000 136.000 45 1001 60 5 299
1948255N17137 1948 62 WP MM JACKIE 1948-09-11 09:00:00 TS 17.5926 135.877 main 1270 1256 P________PPP__ WP151948 17.5998 135.850 47 0 17.5998 135.850 TC 47 17.5708 135.959 2 48 17.5998 135.850 47 1000 90 4 303
1948255N17137 1948 62 WP MM JACKIE 1948-09-11 12:00:00 TS 17.7000 135.700 main 1256 1234 O________OOO__ jtwc_wp WP151948 17.7000 135.700 50 0 17.7000 135.700 TC 50 17.7000 135.700 2 50 17.7000 135.700 50 999 120 5 298
1948255N17137 1948 62 WP MM JACKIE 1948-09-11 15:00:00 TS 17.8406 135.381 main 1234 1212 P________PPP__ WP151948 17.8426 135.365 50 0 17.8426 135.365 TC 50 17.8345 135.430 2 50 17.8426 135.365 50 997 120 7 295
1948255N17137 1948 62 WP MM JACKIE 1948-09-11 18:00:00 TS 17.9943 135.036 main 1208 1196 O________OPO__ jtwc_wp WP151948 18.0000 135.000 50 0 18.0000 135.000 TC 50 17.9771 135.145 2 50 18.0000 135.000 50 996 120 7 297
1948255N17137 1948 62 WP MM JACKIE 1948-09-11 21:00:00 TS 18.1396 134.772 main 1196 1182 P________PPP__ WP151948 18.1423 134.750 50 0 18.1423 134.750 TC 50 18.1313 134.837 2 50 18.1423 134.750 50 994 150 6 301
1948255N17137 1948 62 WP MM JACKIE 1948-09-12 00:00:00 TS 18.3000 134.500 main 1182 1166 O________OOO__ jtwc_wp WP151948 18.3000 134.500 50 0 18.3000 134.500 TC 50 18.3000 134.500 2 50 18.3000 134.500 50 993 180 7 302
1948255N17137 1948 62 WP MM JACKIE 1948-09-12 03:00:00 TS 18.4958 134.169 main 1166 1137 P________PPP__ WP151948 18.4924 134.180 50 0 18.4924 134.180 TC 50 18.5058 134.137 2 50 18.4924 134.180 50 991 240 8 301
1948255N17137 1948 62 WP MM JACKIE 1948-09-12 06:00:00 TS 18.7056 133.786 main 1137 1111 O________OPO__ jtwc_wp WP151948 18.7000 133.800 50 0 18.7000 133.800 TC 50 18.7223 133.745 2 50 18.7000 133.800 50 990 300 9 299
1948255N17137 1948 62 WP MM JACKIE 1948-09-12 09:00:00 TS 18.9124 133.368 main 1111 1076 P________PPP__ WP151948 18.9074 133.380 50 0 18.9074 133.380 TC 50 18.9276 133.331 2 50 18.9074 133.380 50 988 300 9 295
1948255N17137 1948 62 WP MM JACKIE 1948-09-12 12:00:00 TS 19.1000 132.900 main 1076 1044 O________OOO__ jtwc_wp WP151948 19.1000 132.900 50 0 19.1000 132.900 TC 50 19.1000 132.900 2 50 19.1000 132.900 50 987 300 10 290
1948255N17137 1948 62 WP MM JACKIE 1948-09-12 15:00:00 TS 19.2660 132.363 main 1044 1008 P________PPP__ WP151948 19.2802 132.335 55 0 19.2802 132.335 TC 55 19.2232 132.448 2 52 19.2802 132.335 55 985 300 10 286
1948255N17137 1948 62 WP MM JACKIE 1948-09-12 18:00:00 TS 19.3775 131.846 main 1000 974 O________OPO__ jtwc_wp WP151948 19.4000 131.800 60 0 19.4000 131.800 TC 60 19.3102 131.985 2 55 19.4000 131.800 60 984 300 9 279
1948255N17137 1948 62 WP MM JACKIE 1948-09-12 21:00:00 TS 19.4084 131.453 main 974 932 P________PPP__ WP151948 19.4222 131.427 60 0 19.4222 131.427 TC 60 19.3670 131.529 2 57 19.4222 131.427 60 982 300 7 272
1948255N17137 1948 62 WP MM JACKIE 1948-09-13 00:00:00 TS 19.4000 131.100 main 932 890 O________OOO__ jtwc_wp WP151948 19.4000 131.100 60 0 19.4000 131.100 TC 60 19.4000 131.100 2 60 19.4000 131.100 60 981 300 7 270
1948255N17137 1948 62 WP MM JACKIE 1948-09-13 03:00:00 TS 19.4033 130.695 main 890 848 P________PPP__ WP151948 19.4000 130.693 62 0 19.4000 130.693 TC 62 19.4132 130.701 2 61 19.4000 130.693 62 980 300 7 270
1948255N17137 1948 62 WP MM JACKIE 1948-09-13 06:00:00 TS 19.4018 130.308 main 848 817 O________OPO__ jtwc_wp WP151948 19.4000 130.300 65 1 19.4000 130.300 TC 65 19.4072 130.332 2 62 19.4000 130.300 65 979 300 7 269
1948255N17137 1948 62 WP MM JACKIE 1948-09-13 09:00:00 TS 19.3937 129.988 main 817 786 P________PPP__ WP151948 19.3924 129.985 65 1 19.3924 129.985 TC 65 19.3977 129.998 2 63 19.3924 129.985 65 977 270 6 270
1948255N17137 1948 62 WP MM JACKIE 1948-09-13 12:00:00 TS 19.4000 129.700 main 786 755 O________OOO__ jtwc_wp WP151948 19.4000 129.700 65 1 19.4000 129.700 TC 65 19.4000 129.700 3 65 19.4000 129.700 65 976 240 6 275
1948255N17137 1948 62 WP MM JACKIE 1948-09-13 15:00:00 TS 19.4387 129.391 main 755 725 P________PPP__ WP151948 19.4425 129.378 65 1 19.4425 129.378 TC 65 19.4272 129.431 3 66 19.4425 129.378 65 975 240 6 280
1948255N17137 1948 62 WP MM JACKIE 1948-09-13 18:00:00 TS 19.4924 129.124 main 725 715 O________OPO__ jtwc_wp WP151948 19.5000 129.100 65 1 19.5000 129.100 TC 65 19.4697 129.197 3 67 19.5000 129.100 65 974 240 4 284
1948255N17137 1948 62 WP MM JACKIE 1948-09-13 21:00:00 TS 19.5386 128.949 main 704 696 P________PPP__ WP151948 19.5424 128.935 67 1 19.5424 128.935 TC 67 19.5273 128.990 3 68 19.5424 128.935 67 972 240 3 289
1948255N17137 1948 62 WP MM JACKIE 1948-09-14 00:00:00 TS 19.6000 128.800 main 696 677 O________OOO__ jtwc_wp WP151948 19.6000 128.800 70 1 19.6000 128.800 TC 70 19.6000 128.800 4 70 19.6000 128.800 70 971 240 4 295
1948255N17137 1948 62 WP MM JACKIE 1948-09-14 03:00:00 TS 19.6918 128.603 main 677 659 P________PPP__ WP151948 19.6925 128.600 70 1 19.6925 128.600 TC 70 19.6896 128.611 4 70 19.6925 128.600 70 970 270 4 298
1948255N17137 1948 62 WP MM JACKIE 1948-09-14 06:00:00 TS 19.7981 128.409 main 659 649 O________OPO__ jtwc_wp WP151948 19.8000 128.400 70 1 19.8000 128.400 TC 70 19.7923 128.435 4 70 19.8000 128.400 70 969 300 4 302
1948255N17137 1948 62 WP MM JACKIE 1948-09-14 09:00:00 TS 19.8997 128.249 main 642 634 P________PPP__ WP151948 19.9000 128.242 70 1 19.9000 128.242 TC 70 19.8990 128.267 4 70 19.9000 128.242 70 968 300 4 305
1948255N17137 1948 62 WP MM JACKIE 1948-09-14 12:00:00 TS 20.0000 128.100 main 634 624 O________OOO__ jtwc_wp WP151948 20.0000 128.100 70 1 20.0000 128.100 TC 70 20.0000 128.100 4 70 20.0000 128.100 70 967 300 3 306
1948255N17137 1948 62 WP MM JACKIE 1948-09-14 15:00:00 TS 20.0991 127.950 main 627 611 P________PPP__ WP151948 20.1075 127.958 72 1 20.1075 127.958 TC 72 20.0740 127.929 4 71 20.1075 127.958 72 966 300 3 303
1948255N17137 1948 62 WP MM JACKIE 1948-09-14 18:00:00 TS 20.1856 127.789 main 611 591 O________OPO__ jtwc_wp WP151948 20.2000 127.800 75 1 20.2000 127.800 TC 75 20.1424 127.757 4 72 20.2000 127.800 75 965 300 4 293
1948255N17137 1948 62 WP MM JACKIE 1948-09-14 21:00:00 TS 20.2411 127.601 main 591 575 P________PPP__ WP151948 20.2500 127.607 75 1 20.2500 127.607 TC 75 20.2146 127.582 4 73 20.2500 127.607 75 964 270 4 287
1948255N17137 1948 62 WP MM JACKIE 1948-09-15 00:00:00 TS 20.3000 127.400 main 575 560 O________OOO__ jtwc_wp WP151948 20.3000 127.400 75 1 20.3000 127.400 TC 75 20.3000 127.400 4 75 20.3000 127.400 75 964 240 4 292
1948255N17137 1948 62 WP MM JACKIE 1948-09-15 03:00:00 TS 20.3863 127.207 main 560 545 P________PPP__ WP151948 20.3850 127.200 75 1 20.3850 127.200 TC 75 20.3901 127.227 4 76 20.3850 127.200 75 963 210 4 299
1948255N17137 1948 62 WP MM JACKIE 1948-09-15 06:00:00 TS 20.4993 127.011 main 545 531 O________OPO__ jtwc_wp WP151948 20.5000 127.000 75 1 20.5000 127.000 TC 75 20.4972 127.044 4 77 20.5000 127.000 75 962 180 4 304
1948255N17137 1948 62 WP MM JACKIE 1948-09-15 09:00:00 TS 20.6339 126.815 main 531 524 P________PPP__ WP151948 20.6349 126.807 77 1 20.6349 126.807 TC 77 20.6306 126.839 4 78 20.6349 126.807 77 962 210 5 308
1948255N17137 1948 62 WP MM JACKIE 1948-09-15 12:00:00 TS 20.8000 126.600 main 524 512 O________OOO__ jtwc_wp WP151948 20.8000 126.600 80 1 20.8000 126.600 TC 80 20.8000 126.600 4 80 20.8000 126.600 80 962 240 6 310
1948255N17137 1948 62 WP MM JACKIE 1948-09-15 15:00:00 TS 20.9855 126.364 main 518 506 P________PPP__ WP151948 20.9774 126.380 80 1 20.9774 126.380 TC 80 21.0101 126.315 4 80 20.9774 126.380 80 962 240 6 310
1948255N17137 1948 62 WP MM JACKIE 1948-09-15 18:00:00 TS 21.2138 126.074 main 506 477 O________OPO__ jtwc_wp WP151948 21.2000 126.100 80 1 21.2000 126.100 TC 80 21.2551 125.995 4 80 21.2000 126.100 80 962 240 8 310
1948255N17137 1948 62 WP MM JACKIE 1948-09-15 21:00:00 TS 21.5000 125.705 main 477 426 P________PPP__ WP151948 21.4925 125.723 80 1 21.4925 125.723 TC 80 21.5225 125.652 4 80 21.4925 125.723 80 962 270 9 309
1948255N17137 1948 62 WP MM JACKIE 1948-09-16 00:00:00 TS 21.8000 125.300 main 426 379 O________OOO__ jtwc_wp WP151948 21.8000 125.300 80 1 21.8000 125.300 TC 80 21.8000 125.300 4 80 21.8000 125.300 80 963 300 9 307
1948255N17137 1948 62 WP MM JACKIE 1948-09-16 03:00:00 TS 22.0534 124.904 main 376 330 P________PPP__ WP151948 22.0500 124.885 80 1 22.0500 124.885 TC 80 22.0635 124.961 4 77 22.0500 124.885 80 963 300 9 305
1948255N17137 1948 62 WP MM JACKIE 1948-09-16 06:00:00 TS 22.3087 124.529 main 330 292 O________OPO__ jtwc_wp WP151948 22.3000 124.500 80 1 22.3000 124.500 TC 80 22.3347 124.614 4 75 22.3000 124.500 80 964 300 8 310
1948255N17137 1948 62 WP MM JACKIE 1948-09-16 09:00:00 TS 22.5976 124.209 main 292 256 P________PPP__ WP151948 22.5923 124.192 75 1 22.5923 124.192 TC 75 22.6135 124.261 4 72 22.5923 124.192 75 964 330 8 316
1948255N17137 1948 62 WP MM JACKIE 1948-09-16 12:00:00 TS 22.9000 123.900 main 256 221 O________OOO__ jtwc_wp WP151948 22.9000 123.900 70 1 22.9000 123.900 TC 70 22.9000 123.900 4 70 22.9000 123.900 70 965 360 9 315
1948255N17137 1948 62 WP MM JACKIE 1948-09-16 15:00:00 TS 23.1981 123.556 main 221 172 P________PPP__ WP151948 23.1999 123.565 70 1 23.1999 123.565 TC 70 23.1927 123.528 4 70 23.1999 123.565 70 965 390 9 312
1948255N17137 1948 62 WP MM JACKIE 1948-09-16 18:00:00 TS 23.4981 123.187 main 172 120 O________OPO__ jtwc_wp WP151948 23.5000 123.200 70 1 23.5000 123.200 TC 70 23.4924 123.150 4 70 23.5000 123.200 70 966 420 9 311
1948255N17137 1948 62 WP MM JACKIE 1948-09-16 21:00:00 TS 23.8046 122.787 main 120 67 P________PPP__ WP151948 23.8076 122.793 70 1 23.8076 122.793 TC 70 23.7958 122.772 4 70 23.8076 122.793 70 967 450 9 310
1948255N17137 1948 62 WP MM JACKIE 1948-09-17 00:00:00 TS 24.1000 122.400 main 67 30 O________OOO__ jtwc_wp WP151948 24.1000 122.400 70 1 24.1000 122.400 TC 70 24.1000 122.400 4 70 24.1000 122.400 70 968 480 8 311
1948255N17137 1948 62 WP MM JACKIE 1948-09-17 03:00:00 TS 24.3616 122.091 main 23 0 P________PPP__ WP151948 24.3422 122.100 67 1 24.3422 122.100 TC 67 24.4195 122.067 4 67 24.3422 122.100 67 969 510 8 314
1948255N17137 1948 62 WP MM JACKIE 1948-09-17 06:00:00 TS 24.6341 121.784 main 0 0 O________OPO__ jtwc_wp WP151948 24.6000 121.800 65 1 24.6000 121.800 TC 65 24.7363 121.737 4 65 24.6000 121.800 65 971 540 9 315
1948255N17137 1948 62 WP MM JACKIE 1948-09-17 09:00:00 TS 24.9712 121.420 main 0 0 P________PPP__ WP151948 24.9499 121.430 62 0 24.9499 121.430 TC 62 25.0350 121.389 4 62 24.9499 121.430 62 974 510 10 313
1948255N17137 1948 62 WP MM JACKIE 1948-09-17 12:00:00 TS 25.3000 121.000 main 30 30 O________OOO__ jtwc_wp WP151948 25.3000 121.000 60 0 25.3000 121.000 TC 60 25.3000 121.000 2 60 25.3000 121.000 60 977 480 10 307
1948255N17137 1948 62 WP MM JACKIE 1948-09-17 15:00:00 TS 25.5706 120.525 main 83 32 P________PPP__ WP151948 25.5875 120.515 57 0 25.5875 120.515 TC 57 25.5200 120.555 2 57 25.5875 120.515 57 981 420 10 298
1948255N17137 1948 62 WP MM JACKIE 1948-09-17 18:00:00 TS 25.7804 120.013 main 32 0 O________OPO__ jtwc_wp WP151948 25.8000 120.000 55 0 25.8000 120.000 TC 55 25.7022 120.063 2 55 25.8000 120.000 55 985 360 10 290
1948255N17137 1948 62 WP MM JACKIE 1948-09-17 21:00:00 TS 25.9004 119.492 main 0 0 P________PPP__ WP151948 25.9075 119.485 52 0 25.9075 119.485 TC 52 25.8582 119.540 2 52 25.9075 119.485 52 989 270 9 284
1948255N17137 1948 62 WP MM JACKIE 1948-09-18 00:00:00 TS 26.0000 119.000 main 0 0 O________OOO__ jtwc_wp WP151948 26.0000 119.000 50 0 26.0000 119.000 TC 50 26.0000 119.000 2 50 26.0000 119.000 50 994 180 9 288
1948255N17137 1948 62 WP MM JACKIE 1948-09-18 03:00:00 TS 26.1726 118.581 main 0 0 P________P_P__ WP151948 26.1726 118.581 47 0 26.1726 118.581 TC 47 2 26.1726 118.581 47 996 180 8 299
1948255N17137 1948 62 WP MM JACKIE 1948-09-18 06:00:00 TS 26.4000 118.200 main 0 O________O_O__ jtwc_wp WP151948 26.4000 118.200 45 0 26.4000 118.200 TC 45 2 26.4000 118.200 45 999 180 8 304

Digital Typhoon Data and Search

About IBTrACS Database

This database is a web-friendly format of International Best Track Archive for Climate Stewardship (IBTrACS), a global best track data archive curated by NOAA dating back to 1842.

Updated: 2021-11-26